Bookmark and Share
Track history (hours):
 

Viimsi

Last reported at 2014-Apr-24 08:33 UTC. Time now 2014-Apr-24 09:17 UTC.
Position N 59°28' E 024°43'.

Length 78 m; draft 4.5 m.

Type: Ship. MMSI: 276297000.

NotesDate/timePositionNaut miles runAvg speedWind from/ knotsBaromVisibWave heightAir tempDewpointWater temp
2014-Apr-24 08:33N 59°28' E 024°43'0 0.0
2014-Apr-24 07:33N 59°28' E 024°43'0 0.0
2014-Apr-24 06:33N 59°28' E 024°43'0 0.0
2014-Apr-24 05:33N 59°28' E 024°43'0 0.0
2014-Apr-24 04:34N 59°28' E 024°43'0 0.0
2014-Apr-24 03:33N 59°28' E 024°43'0 0.0
2014-Apr-24 02:33N 59°28' E 024°43'0 0.0
2014-Apr-24 01:33N 59°28' E 024°43'0 0.0
2014-Apr-24 00:33N 59°28' E 024°43'0 0.0
2014-Apr-23 23:33N 59°28' E 024°43'0 0.0
2014-Apr-23 22:33N 59°28' E 024°43'0 0.0
2014-Apr-23 21:34N 59°28' E 024°43'0 0.0
2014-Apr-23 20:33N 59°28' E 024°43'0 0.0
2014-Apr-23 19:34N 59°28' E 024°43'0 0.0
2014-Apr-23 18:33N 59°28' E 024°43'0 0.0
2014-Apr-23 17:33N 59°28' E 024°43'0 0.0
2014-Apr-23 16:33N 59°28' E 024°43'0 0.0
2014-Apr-23 15:33N 59°28' E 024°43'0 0.0
2014-Apr-23 14:33N 59°28' E 024°43'0 0.0
2014-Apr-23 13:33N 59°28' E 024°43'0 0.0
2014-Apr-23 12:34N 59°28' E 024°43'0 0.0
2014-Apr-23 11:33N 59°28' E 024°43'0 0.0
2014-Apr-23 10:34N 59°28' E 024°43'0 0.0
2014-Apr-23 09:34N 59°28' E 024°43'0 0.0
2014-Apr-23 08:34N 59°28' E 024°43'0 0.0
2014-Apr-23 07:34N 59°28' E 024°43'0 0.0
2014-Apr-23 06:33N 59°28' E 024°43'0 0.0
2014-Apr-23 05:33N 59°28' E 024°43'0 0.0
2014-Apr-23 04:33N 59°28' E 024°43'2 2.0
2014-Apr-23 03:33N 59°27' E 024°47'1 0.5
2014-Apr-23 02:33N 59°27' E 024°46'0 0.0
2014-Apr-23 01:33N 59°27' E 024°46'0 0.0
2014-Apr-23 00:33N 59°27' E 024°46'0 0.0
2014-Apr-22 23:33N 59°27' E 024°46'0 0.0
2014-Apr-22 22:34N 59°27' E 024°46'0 0.0
2014-Apr-22 21:33N 59°27' E 024°46'4 4.0
2014-Apr-22 20:33N 59°30' E 024°42'3 2.9
2014-Apr-22 19:33N 59°28' E 024°39'0 0.0
2014-Apr-22 18:33N 59°28' E 024°39'0 0.0
2014-Apr-22 17:33N 59°28' E 024°39'0 0.0
2014-Apr-22 16:33N 59°28' E 024°39'0 0.0
2014-Apr-22 15:33N 59°28' E 024°39'0 0.0
2014-Apr-22 14:33N 59°28' E 024°39'0 0.0
2014-Apr-22 13:33N 59°28' E 024°39'0 0.0
2014-Apr-22 12:33N 59°28' E 024°39'0 0.0
2014-Apr-22 11:34N 59°28' E 024°39'0 0.0
2014-Apr-22 10:33N 59°28' E 024°39'0 0.0
2014-Apr-22 09:34N 59°28' E 024°39'0 0.0
2014-Apr-22 08:32N 59°28' E 024°39'0 0.0
2014-Apr-22 07:33N 59°28' E 024°39'0 0.0
2014-Apr-22 06:33N 59°28' E 024°39'0 0.0
2014-Apr-22 05:30N 59°28' E 024°39'0 0.0
2014-Apr-22 04:32N 59°28' E 024°39'0 0.0
2014-Apr-22 03:33N 59°28' E 024°39'0 0.0
2014-Apr-22 02:33N 59°28' E 024°39'0 0.0
2014-Apr-22 01:33N 59°28' E 024°39'0 0.0
2014-Apr-22 00:33N 59°28' E 024°39'0 0.0
2014-Apr-21 23:33N 59°28' E 024°39'0 0.0
2014-Apr-21 22:33N 59°28' E 024°39'0 0.0
2014-Apr-21 21:33N 59°28' E 024°39'0 0.0
2014-Apr-21 20:33N 59°28' E 024°39'0 0.0
2014-Apr-21 19:33N 59°28' E 024°39'0 0.0
2014-Apr-21 18:33N 59°28' E 024°39'0 0.0
2014-Apr-21 17:33N 59°28' E 024°39'0 0.0
2014-Apr-21 16:33N 59°28' E 024°39'0 0.0
2014-Apr-21 15:34N 59°28' E 024°39'0 0.0
2014-Apr-21 14:33N 59°28' E 024°39'0 0.0
2014-Apr-21 13:34N 59°28' E 024°39'3 3.0
2014-Apr-21 12:33N 59°29' E 024°33'16 8.2
2014-Apr-21 10:34N 59°25' E 024°02'19 2.7
2014-Apr-21 03:33N 59°30' E 024°38'5 5.3
2014-Apr-21 02:34N 59°27' E 024°46'0 0.0
2014-Apr-21 01:34N 59°27' E 024°46'0 0.0
2014-Apr-21 00:33N 59°27' E 024°46'0 0.0
2014-Apr-20 23:34N 59°27' E 024°46'0 0.0
2014-Apr-20 22:33N 59°27' E 024°46'0 0.2
2014-Apr-20 21:33N 59°27' E 024°46'1 1.1
2014-Apr-20 20:33N 59°28' E 024°45'0 0.0
2014-Apr-20 19:33N 59°28' E 024°45'0 0.0
2014-Apr-20 18:33N 59°28' E 024°45'0 0.0
2014-Apr-20 17:33N 59°28' E 024°45'3 3.4
2014-Apr-20 16:34N 59°30' E 024°40'2 2.1
2014-Apr-20 15:34N 59°28' E 024°39'0 0.0
2014-Apr-20 14:33N 59°28' E 024°39'0 0.0
2014-Apr-20 13:33N 59°28' E 024°39'0 0.0
2014-Apr-20 12:33N 59°28' E 024°39'0 0.0
2014-Apr-20 11:34N 59°28' E 024°39'0 0.0
2014-Apr-20 10:33N 59°28' E 024°39'0 0.3
2014-Apr-20 09:33N 59°27' E 024°39'3 2.6
2014-Apr-20 08:34N 59°28' E 024°44'0 0.4
2014-Apr-20 07:33N 59°28' E 024°43'0 0.0
2014-Apr-20 06:34N 59°28' E 024°43'0 0.0
2014-Apr-20 05:33N 59°28' E 024°43'0 0.0
2014-Apr-20 04:34N 59°28' E 024°43'0 0.0
2014-Apr-20 03:33N 59°28' E 024°43'0 0.0
2014-Apr-20 02:33N 59°28' E 024°43'0 0.0
2014-Apr-20 01:33N 59°28' E 024°43'0 0.0
2014-Apr-20 00:34N 59°28' E 024°43'0 0.0
2014-Apr-19 23:33N 59°28' E 024°43'0 0.0
2014-Apr-19 22:33N 59°28' E 024°43'0 0.0
2014-Apr-19 21:33N 59°28' E 024°43'0 0.0
2014-Apr-19 20:33N 59°28' E 024°43'0 0.0
2014-Apr-19 19:33N 59°28' E 024°43'0 0.0
2014-Apr-19 18:33N 59°28' E 024°43'0 0.0
2014-Apr-19 17:33N 59°28' E 024°43'0 0.0
2014-Apr-19 16:33N 59°28' E 024°43'0 0.0
2014-Apr-19 15:34N 59°28' E 024°43'0 0.0
2014-Apr-19 14:33N 59°28' E 024°43'0 0.0
2014-Apr-19 13:33N 59°28' E 024°43'0 0.0
2014-Apr-19 12:34N 59°28' E 024°43'0 0.0
2014-Apr-19 11:33N 59°28' E 024°43'0 0.0
2014-Apr-19 10:33N 59°28' E 024°43'0 0.0
2014-Apr-19 09:33N 59°28' E 024°43'0 0.0
2014-Apr-19 08:33N 59°28' E 024°43'0 0.0
2014-Apr-19 07:34N 59°28' E 024°43'0 0.0
2014-Apr-19 06:33N 59°28' E 024°43'0 0.0
2014-Apr-19 05:33N 59°28' E 024°43'0 0.0
2014-Apr-19 04:33N 59°28' E 024°43'0 0.0
2014-Apr-19 03:33N 59°28' E 024°43'0 0.0
2014-Apr-19 02:33N 59°28' E 024°43'0 0.0
2014-Apr-19 01:33N 59°28' E 024°43'0 0.0
2014-Apr-19 00:33N 59°28' E 024°43'0 0.0
2014-Apr-18 23:33N 59°28' E 024°43'0 0.0
2014-Apr-18 22:33N 59°28' E 024°43'0 0.0
2014-Apr-18 21:33N 59°28' E 024°43'1 0.9
2014-Apr-18 20:33N 59°28' E 024°44'7 0.4
2014-Apr-18 03:33N 59°30' E 024°32'5 5.1
2014-Apr-18 02:33N 59°27' E 024°40'0 0.0
2014-Apr-18 01:29N 59°27' E 024°40'0 0.0
2014-Apr-18 00:33N 59°27' E 024°40'0 0.0
2014-Apr-17 23:33N 59°27' E 024°40'0 0.0
2014-Apr-17 22:33N 59°27' E 024°40'0 0.0
2014-Apr-17 21:33N 59°27' E 024°40'0 0.0
2014-Apr-17 20:33N 59°27' E 024°40'0 0.0
2014-Apr-17 19:30N 59°27' E 024°40'0 0.0
2014-Apr-17 18:30N 59°27' E 024°40'0 0.0
2014-Apr-17 17:22N 59°27' E 024°40'0 0.0
2014-Apr-17 16:29N 59°27' E 024°40'0 0.0
2014-Apr-17 15:23N 59°27' E 024°40'2 3.0
2014-Apr-17 14:33N 59°30' E 024°40'3 2.6
2014-Apr-17 13:33N 59°28' E 024°43'0 0.0
2014-Apr-17 12:33N 59°28' E 024°43'0 0.0
2014-Apr-17 11:33N 59°28' E 024°43'0 0.0
2014-Apr-17 10:33N 59°28' E 024°43'0 0.0
2014-Apr-17 09:33N 59°28' E 024°43'0 0.0
2014-Apr-17 08:33N 59°28' E 024°43'0 0.0
2014-Apr-17 07:33N 59°28' E 024°43'0 0.0
2014-Apr-17 06:33N 59°28' E 024°43'0 0.0
2014-Apr-17 05:33N 59°28' E 024°43'0 0.0
2014-Apr-17 04:33N 59°28' E 024°43'0 0.0
2014-Apr-17 03:33N 59°28' E 024°43'0 0.0
2014-Apr-17 02:33N 59°28' E 024°43'0 0.0
2014-Apr-17 01:33N 59°28' E 024°43'0 0.0
2014-Apr-17 00:33N 59°28' E 024°43'0 0.0
2014-Apr-16 23:33N 59°28' E 024°43'0 0.0
2014-Apr-16 22:33N 59°28' E 024°43'0 0.0
2014-Apr-16 21:33N 59°28' E 024°43'0 0.0
2014-Apr-16 20:33N 59°28' E 024°43'0 0.0
2014-Apr-16 19:33N 59°28' E 024°43'0 0.0
2014-Apr-16 18:33N 59°28' E 024°43'0 0.0
2014-Apr-16 17:33N 59°28' E 024°43'0 0.0
2014-Apr-16 16:33N 59°28' E 024°43'0 0.0
2014-Apr-16 15:33N 59°28' E 024°43'0 0.0
2014-Apr-16 14:33N 59°28' E 024°43'0 0.0
2014-Apr-16 13:33N 59°28' E 024°43'0 0.0
2014-Apr-16 12:33N 59°28' E 024°43'0 0.0
2014-Apr-16 11:33N 59°28' E 024°43'0 0.0
2014-Apr-16 10:33N 59°28' E 024°43'0 0.0
2014-Apr-16 09:33N 59°28' E 024°43'0 0.0
2014-Apr-16 08:33N 59°28' E 024°43'0 0.0
2014-Apr-16 07:33N 59°28' E 024°43'0 0.0
2014-Apr-16 06:33N 59°28' E 024°43'0 0.0
2014-Apr-16 05:33N 59°28' E 024°43'0 0.0
2014-Apr-16 04:33N 59°28' E 024°43'2 2.1
2014-Apr-16 03:33N 59°27' E 024°47'0 0.3
2014-Apr-16 02:33N 59°27' E 024°46'0 0.0
2014-Apr-16 01:33N 59°27' E 024°46'0 0.0
2014-Apr-16 00:33N 59°27' E 024°46'0 0.0
2014-Apr-15 23:33N 59°27' E 024°46'0 0.0
2014-Apr-15 22:33N 59°27' E 024°46'1 0.7
2014-Apr-15 21:33N 59°27' E 024°46'5 4.5
2014-Apr-15 20:33N 59°29' E 024°38'1 1.3
2014-Apr-15 19:33N 59°28' E 024°39'0 0.0
2014-Apr-15 18:33N 59°28' E 024°39'0 0.0
2014-Apr-15 17:33N 59°28' E 024°39'0 0.0
2014-Apr-15 16:33N 59°28' E 024°39'0 0.0
2014-Apr-15 15:33N 59°28' E 024°39'0 0.0
2014-Apr-15 14:33N 59°28' E 024°39'0 0.0
2014-Apr-15 12:34N 59°28' E 024°39'0 0.0
2014-Apr-15 11:34N 59°28' E 024°39'0 0.0
2014-Apr-15 10:34N 59°28' E 024°39'0 0.0
2014-Apr-15 09:34N 59°28' E 024°39'0 0.0
2014-Apr-15 08:34N 59°28' E 024°39'0 0.0
2014-Apr-15 07:34N 59°28' E 024°39'0 0.0
2014-Apr-15 06:34N 59°28' E 024°39'0 0.0
2014-Apr-15 05:34N 59°28' E 024°39'0 0.0
2014-Apr-15 03:34N 59°28' E 024°39'0 0.0
2014-Apr-15 02:34N 59°28' E 024°39'0 0.0
2014-Apr-15 01:34N 59°28' E 024°39'3 3.0
2014-Apr-15 00:34N 59°29' E 024°44'2 2.5
2014-Apr-14 23:34N 59°27' E 024°46'0 0.0
2014-Apr-14 22:34N 59°27' E 024°46'0 0.0
2014-Apr-14 21:34N 59°27' E 024°46'0 0.3
2014-Apr-14 20:33N 59°27' E 024°47'1 0.9
2014-Apr-14 19:34N 59°28' E 024°45'0 0.0
2014-Apr-14 18:34N 59°28' E 024°45'0 0.0
2014-Apr-14 17:34N 59°28' E 024°45'0 0.0
2014-Apr-14 16:34N 59°28' E 024°45'4 4.0
2014-Apr-14 15:33N 59°29' E 024°38'2 1.8
2014-Apr-14 14:34N 59°28' E 024°39'0 0.0
2014-Apr-14 13:33N 59°28' E 024°39'0 0.0
2014-Apr-14 11:34N 59°28' E 024°39'0 0.2
2014-Apr-14 10:33N 59°28' E 024°39'1 0.6
2014-Apr-14 09:33N 59°28' E 024°38'  

Dump ship's entire track history

sailing weather and tide predictions

Viimsi — ES2084 — position and weather